createdAt,value
2023-05-19T00:01:15.290Z,1.12
2023-05-19T00:03:55.206Z,0.82
2023-05-19T00:06:26.777Z,0.90
2023-05-19T00:08:57.597Z,0.98
2023-05-19T00:11:26.515Z,1.20
2023-05-19T00:14:00.612Z,1.00
2023-05-19T00:16:28.034Z,0.93
2023-05-19T00:18:55.035Z,1.02
2023-05-19T00:21:21.711Z,1.10
2023-05-19T00:23:48.339Z,1.33
2023-05-19T00:26:15.008Z,1.30
2023-05-19T00:28:41.652Z,0.98
2023-05-19T00:31:08.348Z,1.00
2023-05-19T00:33:35.232Z,0.90
2023-05-19T00:36:03.458Z,1.05
2023-05-19T00:38:35.239Z,1.10
2023-05-19T00:41:02.326Z,1.00
2023-05-19T00:43:30.229Z,1.15
2023-05-19T00:45:57.670Z,1.27
2023-05-19T00:48:25.421Z,1.10
2023-05-19T00:50:53.332Z,0.90
2023-05-19T00:53:19.965Z,0.95
2023-05-19T00:55:46.689Z,1.20
2023-05-19T00:58:13.318Z,1.10
2023-05-19T01:00:40.154Z,1.00
2023-05-19T01:03:11.588Z,0.90
2023-05-19T01:05:42.054Z,1.00
2023-05-19T01:08:08.919Z,1.00
2023-05-19T01:10:35.643Z,1.00
2023-05-19T01:13:03.271Z,1.12
2023-05-19T01:15:32.528Z,0.80
2023-05-19T01:18:07.467Z,0.90
2023-05-19T01:20:46.501Z,1.10
2023-05-19T01:23:36.735Z,0.73
2023-05-19T01:26:21.657Z,0.93
2023-05-19T01:29:00.434Z,0.88
2023-05-19T01:31:27.156Z,0.85
2023-05-19T01:33:54.279Z,0.82
2023-05-19T01:36:22.434Z,1.10
2023-05-19T01:38:51.519Z,1.15
2023-05-19T01:41:19.372Z,1.10
2023-05-19T01:43:46.063Z,0.90
2023-05-19T01:46:12.878Z,1.20
2023-05-19T01:48:39.524Z,0.80
2023-05-19T01:51:06.325Z,0.93
2023-05-19T01:53:33.559Z,1.10
2023-05-19T01:56:00.829Z,0.95
2023-05-19T01:58:38.212Z,0.70
2023-05-19T02:01:22.285Z,1.10
2023-05-19T02:04:09.265Z,1.10
2023-05-19T02:06:41.723Z,1.00
2023-05-19T02:09:13.458Z,1.00
2023-05-19T02:11:53.478Z,1.60
2023-05-19T02:14:21.700Z,1.67
2023-05-19T02:16:48.593Z,1.08
2023-05-19T02:19:26.576Z,1.10
2023-05-19T02:21:53.320Z,1.00
2023-05-19T02:24:20.247Z,0.80
2023-05-19T02:26:46.950Z,0.90
2023-05-19T02:29:13.604Z,1.02
2023-05-19T02:31:40.316Z,0.90
2023-05-19T02:34:08.681Z,1.12
2023-05-19T02:36:36.695Z,1.20
2023-05-19T02:39:04.037Z,0.90
2023-05-19T02:41:30.777Z,1.40
2023-05-19T02:43:58.052Z,1.10
2023-05-19T02:46:24.753Z,1.00
2023-05-19T02:48:52.250Z,0.90
2023-05-19T02:51:21.228Z,1.02
2023-05-19T02:53:50.210Z,0.95
2023-05-19T02:56:17.117Z,1.02
2023-05-19T02:58:43.858Z,1.25
2023-05-19T03:01:11.165Z,1.00
2023-05-19T03:03:38.220Z,1.05
2023-05-19T03:06:05.057Z,1.05
2023-05-19T03:08:31.781Z,1.10
2023-05-19T03:11:00.469Z,1.23
2023-05-19T03:13:27.308Z,1.17
2023-05-19T03:15:53.955Z,0.90
2023-05-19T03:18:20.744Z,1.02
2023-05-19T03:20:49.559Z,1.00
2023-05-19T03:23:16.384Z,1.35
2023-05-19T03:25:42.992Z,0.98
2023-05-19T03:28:10.211Z,1.33
2023-05-19T03:30:37.277Z,1.10
2023-05-19T03:33:05.465Z,1.08
2023-05-19T03:35:32.193Z,1.10
2023-05-19T03:37:58.940Z,1.10
2023-05-19T03:40:25.770Z,0.90
2023-05-19T03:42:54.312Z,1.10
2023-05-19T03:45:21.214Z,1.20
2023-05-19T03:47:48.687Z,1.20
2023-05-19T03:50:15.387Z,1.10
2023-05-19T03:52:45.506Z,1.23
2023-05-19T03:55:12.643Z,0.90
2023-05-19T03:57:41.399Z,1.10
2023-05-19T04:00:11.211Z,1.17
2023-05-19T04:02:38.181Z,1.25
2023-05-19T04:05:05.376Z,1.40
2023-05-19T04:07:32.073Z,1.02
2023-05-19T04:09:58.839Z,0.93
2023-05-19T04:12:25.496Z,1.20
2023-05-19T04:14:52.173Z,1.40
2023-05-19T04:17:18.865Z,1.20
2023-05-19T04:19:45.555Z,1.27
2023-05-19T04:22:12.262Z,0.90
2023-05-19T04:24:38.991Z,1.02
2023-05-19T04:27:05.925Z,1.12
2023-05-19T04:29:32.671Z,1.40
2023-05-19T04:32:00.928Z,1.00
2023-05-19T04:34:28.784Z,1.20
2023-05-19T04:36:55.587Z,4.20
2023-05-19T04:39:22.278Z,3.47
2023-05-19T04:41:49.009Z,3.80
2023-05-19T04:44:18.220Z,3.87
2023-05-19T04:46:45.349Z,3.87
2023-05-19T04:49:14.699Z,4.55
2023-05-19T04:51:41.615Z,3.90
2023-05-19T04:54:08.649Z,3.87
2023-05-19T04:56:35.593Z,3.87
2023-05-19T04:59:02.240Z,4.20
2023-05-19T05:01:31.456Z,4.30
2023-05-19T05:03:59.266Z,4.10
2023-05-19T05:06:26.608Z,4.65
2023-05-19T05:08:53.534Z,4.12
2023-05-19T05:11:20.698Z,4.20
2023-05-19T05:13:47.896Z,4.43
2023-05-19T05:16:15.318Z,3.92
2023-05-19T05:18:44.671Z,4.07
2023-05-19T05:21:12.413Z,5.72
2023-05-19T05:23:39.324Z,4.87
2023-05-19T05:26:15.016Z,4.68
2023-05-19T05:28:41.660Z,4.78
2023-05-19T05:31:08.332Z,5.90
2023-05-19T05:33:35.061Z,4.35
2023-05-19T05:36:01.790Z,5.00
2023-05-19T05:38:31.110Z,5.03
2023-05-19T05:40:57.718Z,5.65
2023-05-19T05:43:24.430Z,5.70
2023-05-19T05:45:51.195Z,5.20
2023-05-19T05:48:18.190Z,5.75
2023-05-19T05:50:45.570Z,5.70
2023-05-19T05:53:20.795Z,5.25
2023-05-19T05:55:47.993Z,5.00
2023-05-19T05:58:15.686Z,5.57
2023-05-19T06:00:47.958Z,5.45
2023-05-19T06:03:14.753Z,5.07
2023-05-19T06:05:41.523Z,5.65
2023-05-19T06:08:08.291Z,5.40
2023-05-19T06:10:36.850Z,4.95
2023-05-19T06:13:03.610Z,5.30
2023-05-19T06:15:30.319Z,4.70
2023-05-19T06:17:59.716Z,5.22
2023-05-19T06:20:26.602Z,5.47
2023-05-19T06:22:53.382Z,5.20
2023-05-19T06:25:20.866Z,5.37
2023-05-19T06:27:47.644Z,5.00
2023-05-19T06:30:14.569Z,4.50
2023-05-19T06:32:41.391Z,5.32
2023-05-19T06:35:08.389Z,5.35
2023-05-19T06:37:35.061Z,4.95
2023-05-19T06:40:01.794Z,5.57
2023-05-19T06:42:28.466Z,5.70
2023-05-19T06:44:57.893Z,5.37
2023-05-19T06:47:24.609Z,4.50
2023-05-19T06:49:55.345Z,4.12
2023-05-19T06:52:22.540Z,4.78
2023-05-19T06:54:49.678Z,4.68
2023-05-19T06:57:16.352Z,8.63
2023-05-19T06:59:43.612Z,4.70
2023-05-19T07:02:10.437Z,4.93
2023-05-19T07:04:37.239Z,5.53
2023-05-19T07:07:04.172Z,4.50
2023-05-19T07:09:30.946Z,5.75
2023-05-19T07:11:57.722Z,5.72
2023-05-19T07:14:26.656Z,6.70
2023-05-19T07:16:53.663Z,6.53
2023-05-19T07:19:20.674Z,6.53
2023-05-19T07:21:47.592Z,6.85
2023-05-19T07:24:14.243Z,6.68
2023-05-19T07:26:41.504Z,7.07
2023-05-19T07:29:08.216Z,6.90
2023-05-19T07:31:34.886Z,7.28
2023-05-19T07:34:01.700Z,6.40
2023-05-19T07:36:28.350Z,6.30
2023-05-19T07:38:55.022Z,7.22
2023-05-19T07:41:21.937Z,6.05
2023-05-19T07:43:49.245Z,5.78
2023-05-19T07:46:16.398Z,5.00
2023-05-19T07:48:43.079Z,4.60
2023-05-19T07:51:12.844Z,4.55
2023-05-19T07:53:39.648Z,4.35
2023-05-19T07:56:06.633Z,5.72
2023-05-19T07:58:33.392Z,5.18
2023-05-19T08:01:00.612Z,4.37
2023-05-19T08:03:27.653Z,4.25
2023-05-19T08:05:54.545Z,4.57
2023-05-19T08:08:21.988Z,3.55
2023-05-19T08:10:48.784Z,3.45
2023-05-19T08:13:24.839Z,3.65
2023-05-19T08:15:51.698Z,4.07
2023-05-19T08:18:18.445Z,3.85
2023-05-19T08:20:46.373Z,3.72
2023-05-19T08:23:13.109Z,3.47
2023-05-19T08:25:40.691Z,3.03
2023-05-19T08:28:10.493Z,2.97
2023-05-19T08:30:37.135Z,2.60
2023-05-19T08:33:03.888Z,2.30
2023-05-19T08:35:30.784Z,2.62
2023-05-19T08:37:57.453Z,3.05
2023-05-19T08:40:24.194Z,2.50
2023-05-19T08:42:51.369Z,2.37
2023-05-19T08:45:18.217Z,2.40
2023-05-19T08:47:48.228Z,2.50
2023-05-19T08:50:18.960Z,2.42
2023-05-19T08:53:28.957Z,2.55
2023-05-19T08:56:10.656Z,2.83
2023-05-19T08:58:43.705Z,2.90
2023-05-19T09:01:14.232Z,2.20
2023-05-19T09:03:41.372Z,2.40
2023-05-19T09:06:09.012Z,2.60
2023-05-19T09:08:36.589Z,2.80
2023-05-19T09:11:03.371Z,2.42
2023-05-19T09:13:30.020Z,2.80
2023-05-19T09:15:57.457Z,2.20
2023-05-19T09:18:27.264Z,2.60
2023-05-19T09:21:00.752Z,2.28
2023-05-19T09:23:34.131Z,2.22
2023-05-19T09:26:07.151Z,2.30
2023-05-19T09:28:34.745Z,2.62
2023-05-19T09:31:11.349Z,2.20
2023-05-19T09:33:42.897Z,2.22
2023-05-19T09:36:11.663Z,2.60
2023-05-19T09:38:38.764Z,2.28
2023-05-19T09:41:06.518Z,2.60
2023-05-19T09:43:33.935Z,3.35
2023-05-19T09:46:03.473Z,2.60
2023-05-19T09:48:30.615Z,2.50
2023-05-19T09:50:57.915Z,2.15
2023-05-19T09:53:25.300Z,2.00
2023-05-19T09:55:55.517Z,2.20
2023-05-19T09:58:22.345Z,2.22
2023-05-19T10:00:48.996Z,2.50
2023-05-19T10:03:16.526Z,2.47
2023-05-19T10:05:43.369Z,2.00
2023-05-19T10:08:10.556Z,2.40
2023-05-19T10:10:38.062Z,2.30
2023-05-19T10:13:05.382Z,2.45
2023-05-19T10:15:33.242Z,1.98
2023-05-19T10:18:03.481Z,2.60
2023-05-19T10:20:30.734Z,2.00
2023-05-19T10:22:57.606Z,2.05
2023-05-19T10:25:24.280Z,2.40
2023-05-19T10:27:59.315Z,2.67
2023-05-19T10:30:31.878Z,2.05
2023-05-19T10:32:59.087Z,2.45
2023-05-19T10:35:45.390Z,2.70
2023-05-19T10:38:33.855Z,2.47
2023-05-19T10:41:23.276Z,2.30
2023-05-19T10:44:21.428Z,2.92
2023-05-19T10:46:48.109Z,1.92
2023-05-19T10:49:23.640Z,2.40
2023-05-19T10:51:51.889Z,2.37
2023-05-19T10:54:19.608Z,2.30
2023-05-19T10:56:47.578Z,2.35
2023-05-19T10:59:33.758Z,2.10
2023-05-19T11:04:40.102Z,2.12
2023-05-19T11:07:09.369Z,2.20
2023-05-19T11:09:40.940Z,2.30
2023-05-19T11:12:08.794Z,2.55
2023-05-19T11:14:35.568Z,2.47
2023-05-19T11:17:02.368Z,1.90
2023-05-19T11:19:35.556Z,2.37
2023-05-19T11:22:12.299Z,2.42
2023-05-19T11:24:40.110Z,2.47
2023-05-19T11:27:33.095Z,1.95
2023-05-19T11:30:11.746Z,2.20
2023-05-19T11:32:44.483Z,2.05
2023-05-19T11:35:11.478Z,2.12
2023-05-19T11:37:40.425Z,2.10
2023-05-19T11:40:07.723Z,2.22
2023-05-19T11:42:37.227Z,2.47
2023-05-19T11:45:04.734Z,2.30
2023-05-19T11:47:39.116Z,2.83
2023-05-19T11:50:13.984Z,2.75
2023-05-19T11:52:44.748Z,2.55
2023-05-19T11:55:16.209Z,2.30
2023-05-19T11:58:02.812Z,2.03
2023-05-19T12:00:34.906Z,2.30
2023-05-19T12:03:01.796Z,2.20
2023-05-19T12:05:29.320Z,2.30
2023-05-19T12:07:56.063Z,2.42
2023-05-19T12:10:31.142Z,2.08
2023-05-19T12:12:58.676Z,2.17
2023-05-19T12:15:25.567Z,2.60
2023-05-19T12:17:56.971Z,2.67
2023-05-19T12:20:23.676Z,2.25
2023-05-19T12:22:51.043Z,2.60
2023-05-19T12:25:17.933Z,2.15
2023-05-19T12:27:44.811Z,2.05
2023-05-19T12:30:12.818Z,2.50
2023-05-19T12:32:39.555Z,2.10
2023-05-19T12:35:07.001Z,2.22
2023-05-19T12:37:34.889Z,2.20
2023-05-19T12:40:02.105Z,2.50
2023-05-19T12:42:31.400Z,2.00
2023-05-19T12:45:00.865Z,2.20
2023-05-19T12:47:33.439Z,2.40
2023-05-19T12:50:00.290Z,2.45
2023-05-19T12:52:27.808Z,2.05
2023-05-19T12:55:01.641Z,2.12
2023-05-19T12:57:32.112Z,2.50
2023-05-19T13:00:15.063Z,1.95
2023-05-19T13:02:55.957Z,2.30
2023-05-19T13:05:23.058Z,1.95
2023-05-19T13:08:00.538Z,2.22
2023-05-19T13:10:27.692Z,2.20
2023-05-19T13:12:58.076Z,2.28
2023-05-19T13:15:26.323Z,2.12
2023-05-19T13:17:53.325Z,2.20
2023-05-19T13:20:20.848Z,1.55
2023-05-19T13:22:48.106Z,2.00
2023-05-19T13:25:14.850Z,2.33
2023-05-19T13:27:41.577Z,2.00
2023-05-19T13:30:08.784Z,1.70
2023-05-19T13:32:35.447Z,2.33
2023-05-19T13:35:02.349Z,2.05
2023-05-19T13:37:29.273Z,2.15
2023-05-19T13:39:56.022Z,2.10
2023-05-19T13:42:22.746Z,2.00
2023-05-19T13:44:49.488Z,2.00
2023-05-19T13:47:16.376Z,2.92
2023-05-19T13:49:43.144Z,1.50
2023-05-19T13:52:09.807Z,2.30
2023-05-19T13:54:36.593Z,1.85
2023-05-19T13:57:03.314Z,2.20
2023-05-19T13:59:30.186Z,1.90
2023-05-19T14:01:57.195Z,2.12
2023-05-19T14:04:24.692Z,2.08
2023-05-19T14:06:51.438Z,1.90
2023-05-19T14:09:18.290Z,2.30
2023-05-19T14:11:44.896Z,1.95
2023-05-19T14:14:11.802Z,2.10
2023-05-19T14:16:38.974Z,1.92
2023-05-19T14:19:05.684Z,2.25
2023-05-19T14:21:32.790Z,1.92
2023-05-19T14:23:59.527Z,2.42
2023-05-19T14:26:28.626Z,1.85
2023-05-19T14:28:57.124Z,2.28
2023-05-19T14:31:23.827Z,1.80
2023-05-19T14:33:51.315Z,2.15
2023-05-19T14:36:18.111Z,1.90
2023-05-19T14:38:44.841Z,2.10
2023-05-19T14:41:14.751Z,2.10
2023-05-19T14:43:43.160Z,1.80
2023-05-19T14:46:09.885Z,1.95
2023-05-19T14:48:36.639Z,2.42
2023-05-19T14:51:03.436Z,1.70
2023-05-19T14:53:30.154Z,1.80
2023-05-19T14:55:56.832Z,2.08
2023-05-19T14:58:28.968Z,2.00
2023-05-19T15:01:00.910Z,2.20
2023-05-19T15:03:27.615Z,1.87
2023-05-19T15:05:54.345Z,1.73
2023-05-19T15:08:21.031Z,1.80
2023-05-19T15:10:50.691Z,1.90
2023-05-19T15:13:19.069Z,2.33
2023-05-19T15:15:46.137Z,2.03
2023-05-19T15:18:13.234Z,1.65
2023-05-19T15:20:40.144Z,1.85
2023-05-19T15:23:06.801Z,1.92
2023-05-19T15:25:33.526Z,1.83
2023-05-19T15:28:00.220Z,1.80
2023-05-19T15:30:28.889Z,2.33
2023-05-19T15:32:55.799Z,1.80
2023-05-19T15:35:22.492Z,2.00
2023-05-19T15:37:49.143Z,1.80
2023-05-19T15:40:15.939Z,1.90
2023-05-19T15:42:42.571Z,1.62
2023-05-19T15:45:09.736Z,2.10
2023-05-19T15:47:36.448Z,1.83
2023-05-19T15:50:03.466Z,1.73
2023-05-19T15:52:30.124Z,1.75
2023-05-19T15:54:59.099Z,2.00
2023-05-19T15:57:25.924Z,1.92
2023-05-19T15:59:52.581Z,1.83
2023-05-19T16:02:19.793Z,1.87
2023-05-19T16:04:46.538Z,2.03
2023-05-19T16:07:13.161Z,2.03
2023-05-19T16:09:39.803Z,2.08
2023-05-19T16:12:06.838Z,1.80
2023-05-19T16:14:36.468Z,1.90
2023-05-19T16:17:03.918Z,1.87
2023-05-19T16:19:30.743Z,1.80
2023-05-19T16:21:57.600Z,1.95
2023-05-19T16:24:24.829Z,1.90
2023-05-19T16:26:53.724Z,1.70
2023-05-19T16:29:20.534Z,1.98
2023-05-19T16:31:49.912Z,1.77
2023-05-19T16:34:16.829Z,1.73
2023-05-19T16:36:43.553Z,2.08
2023-05-19T16:39:10.180Z,2.00
2023-05-19T16:41:36.944Z,1.67
2023-05-19T16:44:03.604Z,1.80
2023-05-19T16:46:31.541Z,1.83
2023-05-19T16:48:58.591Z,2.05
2023-05-19T16:51:25.268Z,1.60
2023-05-19T16:53:52.052Z,1.80
2023-05-19T16:56:18.777Z,1.73
2023-05-19T16:58:45.611Z,2.15
2023-05-19T17:01:12.494Z,2.10
2023-05-19T17:03:39.358Z,1.77
2023-05-19T17:06:06.231Z,1.80
2023-05-19T17:08:32.930Z,1.77
2023-05-19T17:10:59.587Z,1.70
2023-05-19T17:13:28.334Z,1.80
2023-05-19T17:15:55.040Z,2.12
2023-05-19T17:18:22.960Z,1.77
2023-05-19T17:20:49.575Z,2.05
2023-05-19T17:23:16.266Z,1.70
2023-05-19T17:25:42.886Z,1.70
2023-05-19T17:28:09.645Z,1.83
2023-05-19T17:30:36.341Z,2.03
2023-05-19T17:33:03.803Z,1.90
2023-05-19T17:35:30.763Z,1.73
2023-05-19T17:37:58.009Z,1.90
2023-05-19T17:40:24.720Z,1.52
2023-05-19T17:42:51.373Z,2.08
2023-05-19T17:45:18.233Z,2.05
2023-05-19T17:47:44.971Z,2.20
2023-05-19T17:50:11.737Z,1.83
2023-05-19T17:52:40.195Z,1.87
2023-05-19T17:55:07.698Z,1.73
2023-05-19T17:57:34.450Z,1.87
2023-05-19T18:00:01.577Z,1.80
2023-05-19T18:02:28.484Z,1.83
2023-05-19T18:04:55.707Z,2.15
2023-05-19T18:07:24.997Z,1.65
2023-05-19T18:09:51.811Z,1.92
2023-05-19T18:12:18.552Z,2.10
2023-05-19T18:14:45.220Z,1.92
2023-05-19T18:17:11.927Z,1.90
2023-05-19T18:19:38.682Z,2.00
2023-05-19T18:22:05.688Z,1.58
2023-05-19T18:24:32.302Z,2.15
2023-05-19T18:26:59.175Z,2.20
2023-05-19T18:29:25.896Z,1.98
2023-05-19T18:31:52.750Z,2.00
2023-05-19T18:34:19.525Z,2.10
2023-05-19T18:36:46.177Z,2.20
2023-05-19T18:39:12.837Z,2.37
2023-05-19T18:41:42.698Z,2.15
2023-05-19T18:44:09.573Z,2.35
2023-05-19T18:46:36.206Z,2.20
2023-05-19T18:49:03.839Z,1.95
2023-05-19T18:51:35.022Z,2.55
2023-05-19T18:54:01.791Z,2.95
2023-05-19T18:56:31.013Z,2.83
2023-05-19T18:59:00.320Z,3.65
2023-05-19T19:01:27.058Z,3.67
2023-05-19T19:03:53.756Z,3.35
2023-05-19T19:06:23.473Z,3.60
2023-05-19T19:08:50.465Z,3.47
2023-05-19T19:11:17.243Z,3.75
2023-05-19T19:13:43.930Z,4.55
2023-05-19T19:16:10.888Z,3.80
2023-05-19T19:18:37.686Z,3.90
2023-05-19T19:21:05.887Z,3.28
2023-05-19T19:23:32.899Z,3.22
2023-05-19T19:25:59.865Z,3.10
2023-05-19T19:28:26.921Z,3.28
2023-05-19T19:30:53.585Z,2.85
2023-05-19T19:33:20.630Z,3.15
2023-05-19T19:35:47.362Z,3.47
2023-05-19T19:38:14.196Z,3.70
2023-05-19T19:40:40.852Z,3.37
2023-05-19T19:43:07.530Z,2.83
2023-05-19T19:45:34.969Z,3.20
2023-05-19T19:48:01.891Z,3.05
2023-05-19T19:50:31.101Z,2.97
2023-05-19T19:52:57.872Z,3.00
2023-05-19T19:55:24.487Z,2.53
2023-05-19T19:57:51.390Z,2.80
2023-05-19T20:00:18.520Z,3.00
2023-05-19T20:03:03.769Z,3.30
2023-05-19T20:07:58.049Z,2.97
2023-05-19T20:10:24.695Z,2.83
2023-05-19T20:12:52.054Z,2.42
2023-05-19T20:15:19.008Z,2.50
2023-05-19T20:17:45.990Z,2.90
2023-05-19T20:20:15.185Z,2.72
2023-05-19T20:22:44.405Z,2.50
2023-05-19T20:25:16.308Z,2.78
2023-05-19T20:27:43.126Z,2.53
2023-05-19T20:30:10.102Z,2.40
2023-05-19T20:32:36.818Z,3.05
2023-05-19T20:35:03.509Z,3.03
2023-05-19T20:37:30.619Z,2.50
2023-05-19T20:39:57.271Z,2.50
2023-05-19T20:42:26.780Z,2.67
2023-05-19T20:44:53.468Z,2.42
2023-05-19T20:47:21.042Z,2.40
2023-05-19T20:49:50.864Z,2.58
2023-05-19T20:52:17.759Z,2.60
2023-05-19T20:54:45.413Z,2.42
2023-05-19T20:57:12.734Z,2.55
2023-05-19T20:59:39.518Z,2.55
2023-05-19T21:02:07.665Z,2.30
2023-05-19T21:04:34.520Z,2.53
2023-05-19T21:07:01.381Z,2.40
2023-05-19T21:09:28.103Z,2.00
2023-05-19T21:11:54.745Z,2.37
2023-05-19T21:14:21.780Z,2.35
2023-05-19T21:16:49.306Z,2.50
2023-05-19T21:19:16.278Z,2.30
2023-05-19T21:21:44.844Z,2.60
2023-05-19T21:24:12.863Z,2.50
2023-05-19T21:26:40.033Z,2.55
2023-05-19T21:29:07.152Z,2.40
2023-05-19T21:31:35.345Z,2.65
2023-05-19T21:34:07.672Z,2.40
2023-05-19T21:36:35.278Z,2.28
2023-05-19T21:39:01.990Z,2.55
2023-05-19T21:41:28.755Z,2.70
2023-05-19T21:43:57.722Z,2.67
2023-05-19T21:46:24.524Z,2.20
2023-05-19T21:48:51.310Z,2.53
2023-05-19T21:51:20.040Z,2.22
2023-05-19T21:53:46.648Z,2.12
2023-05-19T21:56:13.387Z,2.65
2023-05-19T21:58:40.114Z,2.45
2023-05-19T22:01:07.980Z,2.42
2023-05-19T22:03:34.754Z,2.17
2023-05-19T22:06:01.770Z,2.40
2023-05-19T22:08:28.676Z,2.30
2023-05-19T22:10:55.765Z,2.42
2023-05-19T22:13:22.555Z,2.22
2023-05-19T22:15:49.406Z,2.72
2023-05-19T22:18:16.846Z,2.28
2023-05-19T22:20:43.580Z,2.45
2023-05-19T22:23:10.769Z,2.45
2023-05-19T22:25:37.636Z,2.75
2023-05-19T22:28:07.454Z,2.37
2023-05-19T22:30:40.824Z,2.60
2023-05-19T22:33:12.028Z,2.60
2023-05-19T22:35:38.740Z,2.60
2023-05-19T22:38:05.708Z,2.47
2023-05-19T22:40:32.906Z,2.80
2023-05-19T22:42:59.686Z,2.42
2023-05-19T22:45:26.350Z,2.35
2023-05-19T22:47:57.697Z,2.62
2023-05-19T22:50:24.400Z,2.67
2023-05-19T22:52:51.124Z,2.80
2023-05-19T22:55:17.802Z,2.47
2023-05-19T22:57:44.565Z,2.50
2023-05-19T23:00:16.426Z,2.53
2023-05-19T23:02:43.204Z,2.97
2023-05-19T23:05:10.161Z,2.70
2023-05-19T23:07:36.871Z,2.70
2023-05-19T23:10:05.962Z,2.37
2023-05-19T23:12:32.719Z,2.70
2023-05-19T23:14:59.394Z,2.17
2023-05-19T23:17:26.408Z,2.72
2023-05-19T23:19:53.123Z,2.80
2023-05-19T23:22:19.922Z,3.03
2023-05-19T23:24:46.698Z,3.00
2023-05-19T23:27:13.401Z,2.78
2023-05-19T23:29:40.097Z,2.60
2023-05-19T23:32:07.297Z,2.62
2023-05-19T23:34:33.920Z,2.55
2023-05-19T23:37:00.578Z,2.65
2023-05-19T23:39:27.980Z,2.72
2023-05-19T23:41:54.643Z,2.58
2023-05-19T23:44:21.350Z,2.35
2023-05-19T23:46:48.100Z,2.60
2023-05-19T23:49:14.893Z,2.70
2023-05-19T23:51:41.530Z,2.62
2023-05-19T23:54:08.180Z,2.65
2023-05-19T23:56:34.934Z,2.78
2023-05-19T23:59:01.609Z,2.53
